createdAt,value
2022-10-12T00:00:06.474Z,10.18
2022-10-12T00:02:41.075Z,11.85
2022-10-12T00:05:08.856Z,11.05
2022-10-12T00:07:36.739Z,10.13
2022-10-12T00:10:04.969Z,12.68
2022-10-12T00:12:32.459Z,10.20
2022-10-12T00:14:59.921Z,9.98
2022-10-12T00:17:27.319Z,10.40
2022-10-12T00:19:54.720Z,10.20
2022-10-12T00:22:22.217Z,10.20
2022-10-12T00:24:49.756Z,8.55
2022-10-12T00:27:17.124Z,9.55
2022-10-12T00:29:44.698Z,9.85
2022-10-12T00:32:12.274Z,9.95
2022-10-12T00:34:39.788Z,9.73
2022-10-12T00:37:07.144Z,9.98
2022-10-12T00:39:34.759Z,12.23
2022-10-12T00:42:02.202Z,11.65
2022-10-12T00:44:43.083Z,11.30
2022-10-12T00:47:17.788Z,9.32
2022-10-12T00:49:56.724Z,9.18
2022-10-12T00:52:29.808Z,11.85
2022-10-12T00:54:57.941Z,9.57
2022-10-12T00:57:25.540Z,10.52
2022-10-12T00:59:58.703Z,11.35
2022-10-12T01:02:29.463Z,9.18
2022-10-12T01:04:57.692Z,9.68
2022-10-12T01:07:25.336Z,10.57
2022-10-12T01:09:53.063Z,8.48
2022-10-12T01:12:21.411Z,11.45
2022-10-12T01:14:49.074Z,10.50
2022-10-12T01:17:22.635Z,10.23
2022-10-12T01:20:10.163Z,13.18
2022-10-12T01:23:05.969Z,11.07
2022-10-12T01:25:45.243Z,9.85
2022-10-12T01:28:35.887Z,9.98
2022-10-12T01:31:18.436Z,9.55
2022-10-12T01:33:50.635Z,10.55
2022-10-12T01:36:27.192Z,9.20
2022-10-12T01:39:22.483Z,11.73
2022-10-12T01:41:55.432Z,11.00
2022-10-12T01:44:25.886Z,12.52
2022-10-12T01:46:55.551Z,13.40
2022-10-12T01:49:26.648Z,9.13
2022-10-12T01:52:00.956Z,9.50
2022-10-12T01:54:43.826Z,10.23
2022-10-12T01:57:56.415Z,10.00
2022-10-12T02:00:24.491Z,10.63
2022-10-12T02:03:12.782Z,9.70
2022-10-12T02:05:53.841Z,10.85
2022-10-12T02:08:33.279Z,11.68
2022-10-12T02:11:06.657Z,9.10
2022-10-12T02:13:38.613Z,10.48
2022-10-12T02:16:11.705Z,12.15
2022-10-12T02:18:43.820Z,7.82
2022-10-12T02:21:16.066Z,12.98
2022-10-12T02:23:45.669Z,11.80
2022-10-12T02:26:15.660Z,9.07
2022-10-12T02:28:45.055Z,11.05
2022-10-12T02:31:19.519Z,8.88
2022-10-12T02:33:57.284Z,11.35
2022-10-12T02:36:46.045Z,10.25
2022-10-12T02:39:36.172Z,8.57
2022-10-12T02:42:12.392Z,8.93
2022-10-12T02:44:42.047Z,11.63
2022-10-12T02:47:11.721Z,11.07
2022-10-12T02:49:40.446Z,8.82
2022-10-12T02:52:08.421Z,11.27
2022-10-12T02:54:36.657Z,8.40
2022-10-12T02:57:04.062Z,10.68
2022-10-12T02:59:31.555Z,10.50
2022-10-12T03:01:58.884Z,8.68
2022-10-12T03:04:26.346Z,9.48
2022-10-12T03:06:53.730Z,8.68
2022-10-12T03:09:21.373Z,8.07
2022-10-12T03:11:48.792Z,10.05
2022-10-12T03:14:17.461Z,8.05
2022-10-12T03:16:46.636Z,9.15
2022-10-12T03:19:15.050Z,10.88
2022-10-12T03:21:42.445Z,10.73
2022-10-12T03:24:09.951Z,9.13
2022-10-12T03:26:37.467Z,9.93
2022-10-12T03:29:05.409Z,8.35
2022-10-12T03:31:32.825Z,8.38
2022-10-12T03:34:00.561Z,8.27
2022-10-12T03:36:27.933Z,8.35
2022-10-12T03:38:55.632Z,8.57
2022-10-12T03:41:23.189Z,8.98
2022-10-12T03:43:50.629Z,7.97
2022-10-12T03:46:18.148Z,7.35
2022-10-12T03:48:45.566Z,9.65
2022-10-12T03:51:13.140Z,9.05
2022-10-12T03:53:45.184Z,8.05
2022-10-12T03:56:13.385Z,7.18
2022-10-12T03:58:40.956Z,8.15
2022-10-12T04:01:08.426Z,8.38
2022-10-12T04:03:36.596Z,8.32
2022-10-12T04:06:04.133Z,8.48
2022-10-12T04:08:31.575Z,8.10
2022-10-12T04:10:59.014Z,12.10
2022-10-12T04:13:26.398Z,8.93
2022-10-12T05:09:44.697Z,8.57
2022-10-12T05:28:12.789Z,9.67
2022-10-12T05:30:48.097Z,10.75
2022-10-12T05:56:51.692Z,9.93
2022-10-12T08:07:25.326Z,9.18
2022-10-12T08:09:52.823Z,5.38
2022-10-12T08:12:20.664Z,6.38
2022-10-12T08:14:48.191Z,7.97
2022-10-12T08:17:15.800Z,9.85
2022-10-12T08:19:43.283Z,8.93
2022-10-12T08:22:12.540Z,10.05
2022-10-12T08:24:39.957Z,9.77
2022-10-12T08:27:07.528Z,8.48
2022-10-12T08:29:35.033Z,9.10
2022-10-12T08:32:02.569Z,6.75
2022-10-12T08:34:30.978Z,5.45
2022-10-12T08:36:59.649Z,7.45
2022-10-12T08:39:27.605Z,7.78
2022-10-12T08:42:16.567Z,8.38
2022-10-12T08:45:01.664Z,10.10
2022-10-12T08:47:51.575Z,7.97
2022-10-12T08:50:38.603Z,6.05
2022-10-12T08:53:19.427Z,7.43
2022-10-12T08:55:47.165Z,7.00
2022-10-12T08:58:35.674Z,5.63
2022-10-12T09:01:16.631Z,8.25
2022-10-12T09:03:55.609Z,4.95
2022-10-12T09:06:30.125Z,10.13
2022-10-12T09:09:03.408Z,5.78
2022-10-12T09:11:58.833Z,10.57
2022-10-12T09:14:30.913Z,7.82
2022-10-12T09:17:02.615Z,5.75
2022-10-12T09:19:42.025Z,6.55
2022-10-12T09:22:19.424Z,7.15
2022-10-12T09:24:49.978Z,9.27
2022-10-12T09:27:20.542Z,7.82
2022-10-12T09:29:52.311Z,6.07
2022-10-12T09:32:40.705Z,8.60
2022-10-12T09:35:13.105Z,8.38
2022-10-12T09:37:41.279Z,9.07
2022-10-12T09:40:22.200Z,7.47
2022-10-12T09:42:51.026Z,6.78
2022-10-12T09:45:20.776Z,8.35
2022-10-12T09:48:20.551Z,6.63
2022-10-12T09:51:04.225Z,8.20
2022-10-12T09:53:56.745Z,8.02
2022-10-12T09:56:36.345Z,5.40
2022-10-12T09:59:25.434Z,7.68
2022-10-12T10:02:04.217Z,6.10
2022-10-12T10:04:34.931Z,6.53
2022-10-12T10:07:22.728Z,6.13
2022-10-12T10:10:18.548Z,13.07
2022-10-12T10:13:03.004Z,5.70
2022-10-12T10:15:38.810Z,5.55
2022-10-12T10:18:17.846Z,8.50
2022-10-12T10:20:53.352Z,7.78
2022-10-12T10:23:33.434Z,10.40
2022-10-12T10:26:08.703Z,6.38
2022-10-12T10:28:38.678Z,8.52
2022-10-12T10:31:13.904Z,7.82
2022-10-12T10:33:41.917Z,7.07
2022-10-12T10:36:20.488Z,7.95
2022-10-12T10:39:16.260Z,5.72
2022-10-12T10:44:37.596Z,5.53
2022-10-12T10:47:11.833Z,7.30
2022-10-12T10:50:00.561Z,7.28
2022-10-12T10:52:36.937Z,7.15
2022-10-12T10:55:10.163Z,5.72
2022-10-12T10:57:45.279Z,10.45
2022-10-12T11:00:39.096Z,5.85
2022-10-12T11:03:31.380Z,7.95
2022-10-12T11:06:16.619Z,6.28
2022-10-12T11:11:21.165Z,8.23
2022-10-12T11:14:19.277Z,16.17
2022-10-12T11:17:01.753Z,6.00
2022-10-12T11:19:42.311Z,5.47
2022-10-12T11:22:19.233Z,8.82
2022-10-12T11:25:02.177Z,7.80
2022-10-12T11:27:40.947Z,8.43
2022-10-12T11:30:17.854Z,8.43
2022-10-12T11:33:03.223Z,6.80
2022-10-12T11:35:40.288Z,7.50
2022-10-12T11:38:22.583Z,10.43
2022-10-12T11:41:31.128Z,10.00
2022-10-12T11:44:20.609Z,6.68
2022-10-12T11:47:00.680Z,7.15
2022-10-12T11:49:46.707Z,10.85
2022-10-12T11:52:15.375Z,13.48
2022-10-12T11:55:05.351Z,12.40
2022-10-12T11:57:37.364Z,9.18
2022-10-12T12:00:19.513Z,11.30
2022-10-12T12:02:55.808Z,8.63
2022-10-12T12:05:23.461Z,8.02
2022-10-12T12:07:53.878Z,11.32
2022-10-12T12:10:37.151Z,9.48
2022-10-12T12:13:13.441Z,8.80
2022-10-12T12:15:43.481Z,7.18
2022-10-12T12:18:18.754Z,12.07
2022-10-12T12:20:49.069Z,7.80
2022-10-12T12:23:29.455Z,6.03
2022-10-12T12:26:16.305Z,10.88
2022-10-12T12:28:49.977Z,5.30
2022-10-12T12:31:23.522Z,5.90
2022-10-12T12:34:02.361Z,6.03
2022-10-12T12:36:33.833Z,4.88
2022-10-12T12:39:03.006Z,8.07
2022-10-12T12:42:00.575Z,12.02
2022-10-12T12:44:37.944Z,8.00
2022-10-12T12:47:26.074Z,8.98
2022-10-12T12:49:55.766Z,10.40
2022-10-12T12:52:34.096Z,6.00
2022-10-12T12:55:26.744Z,5.07
2022-10-12T12:58:09.605Z,7.03
2022-10-12T13:01:00.504Z,6.53
2022-10-12T13:04:00.062Z,6.03
2022-10-12T13:06:27.482Z,7.45
2022-10-12T13:09:31.720Z,6.55
2022-10-12T13:12:14.285Z,7.07
2022-10-12T13:14:59.145Z,4.65
2022-10-12T13:17:54.472Z,6.78
2022-10-12T13:20:26.938Z,8.38
2022-10-12T13:22:57.918Z,10.65
2022-10-12T13:25:32.931Z,6.25
2022-10-12T13:28:04.601Z,5.57
2022-10-12T13:30:55.908Z,7.40
2022-10-12T13:33:50.975Z,7.47
2022-10-12T13:36:23.780Z,8.20
2022-10-12T13:39:00.170Z,9.85
2022-10-12T13:41:30.537Z,7.57
2022-10-12T13:44:04.853Z,6.60
2022-10-12T13:46:45.947Z,8.43
2022-10-12T13:49:20.259Z,10.10
2022-10-12T13:51:53.320Z,8.93
2022-10-12T13:54:41.688Z,7.57
2022-10-12T13:57:42.699Z,7.63
2022-10-12T14:00:21.022Z,6.93
2022-10-12T14:02:59.518Z,6.45
2022-10-12T14:05:35.018Z,6.88
2022-10-12T14:08:11.153Z,8.45
2022-10-12T14:10:39.320Z,7.22
2022-10-12T14:13:09.477Z,6.72
2022-10-12T14:15:40.009Z,8.18
2022-10-12T14:18:50.817Z,7.13
2022-10-12T14:21:33.294Z,6.30
2022-10-12T14:24:09.869Z,9.82
2022-10-12T14:26:55.802Z,5.88
2022-10-12T14:29:40.402Z,8.50
2022-10-12T14:32:37.465Z,7.75
2022-10-12T14:35:12.673Z,9.60
2022-10-12T14:40:26.456Z,8.43
2022-10-12T14:43:15.302Z,9.52
2022-10-12T14:45:42.847Z,8.40
2022-10-12T14:48:16.512Z,5.28
2022-10-12T14:50:44.522Z,5.25
2022-10-12T14:53:13.836Z,10.07
2022-10-12T14:55:42.691Z,7.63
2022-10-12T14:58:15.624Z,6.78
2022-10-12T15:00:44.245Z,7.57
2022-10-12T15:03:12.101Z,5.00
2022-10-12T15:05:39.760Z,6.10
2022-10-12T15:08:38.344Z,9.15
2022-10-12T15:11:06.895Z,7.72
2022-10-12T15:13:38.194Z,4.90
2022-10-12T15:16:18.579Z,9.52
2022-10-12T15:18:46.406Z,7.38
2022-10-12T15:21:14.114Z,7.85
2022-10-12T15:23:42.617Z,9.68
2022-10-12T15:26:16.316Z,8.10
2022-10-12T15:28:44.418Z,5.25
2022-10-12T15:31:19.578Z,6.75
2022-10-12T15:33:47.747Z,7.05
2022-10-12T15:36:15.552Z,7.45
2022-10-12T15:38:42.995Z,10.45
2022-10-12T15:41:20.607Z,7.32
2022-10-12T15:43:51.080Z,7.75
2022-10-12T15:46:27.923Z,8.00
2022-10-12T15:48:57.871Z,6.97
2022-10-12T15:51:25.565Z,6.57
2022-10-12T15:53:56.289Z,6.60
2022-10-12T15:56:24.172Z,6.32
2022-10-12T15:58:51.897Z,7.25
2022-10-12T16:01:20.653Z,11.43
2022-10-12T16:03:49.572Z,9.07
2022-10-12T16:06:17.040Z,6.13
2022-10-12T16:08:44.504Z,6.75
2022-10-12T16:11:14.536Z,7.43
2022-10-12T16:13:47.990Z,11.02
2022-10-12T16:16:19.402Z,6.95
2022-10-12T16:18:46.904Z,8.38
2022-10-12T16:21:14.396Z,6.72
2022-10-12T16:23:42.275Z,6.85
2022-10-12T16:26:19.349Z,9.77
2022-10-12T16:28:46.961Z,7.05
2022-10-12T16:31:17.693Z,8.38
2022-10-12T16:33:50.175Z,11.00
2022-10-12T16:38:47.907Z,7.70
2022-10-12T16:41:16.697Z,6.63
2022-10-12T16:43:44.680Z,7.15
2022-10-12T16:46:36.760Z,8.13
2022-10-12T16:49:04.281Z,8.15
2022-10-12T16:51:31.887Z,9.10
2022-10-12T16:53:59.431Z,10.25
2022-10-12T16:56:27.105Z,12.65
2022-10-12T16:59:00.091Z,10.05
2022-10-12T17:01:27.632Z,14.35
2022-10-12T17:03:55.155Z,11.93
2022-10-12T17:06:27.993Z,6.63
2022-10-12T17:11:26.103Z,12.88
2022-10-12T17:13:57.189Z,16.90
2022-10-12T17:16:47.049Z,11.93
2022-10-12T17:19:32.530Z,9.23
2022-10-12T17:22:04.253Z,14.02
2022-10-12T17:24:34.512Z,11.98
2022-10-12T17:27:03.837Z,16.30
2022-10-12T17:29:32.600Z,18.10
2022-10-12T17:32:10.127Z,16.63
2022-10-12T17:34:44.904Z,15.95
2022-10-12T17:37:13.625Z,16.90
2022-10-12T17:40:00.609Z,21.27
2022-10-12T17:42:30.915Z,37.60
2022-10-12T17:44:59.755Z,36.33
2022-10-12T17:47:30.335Z,37.78
2022-10-12T17:49:57.825Z,37.10
2022-10-12T17:52:36.270Z,37.35
2022-10-12T17:55:03.986Z,32.30
2022-10-12T17:57:31.434Z,32.55
2022-10-12T18:00:02.589Z,28.20
2022-10-12T18:02:40.669Z,26.90
2022-10-12T18:05:09.640Z,21.38
2022-10-12T18:07:41.438Z,17.75
2022-10-12T18:10:09.864Z,18.02
2022-10-12T18:12:37.596Z,16.65
2022-10-12T18:15:07.527Z,13.13
2022-10-12T18:17:35.339Z,15.15
2022-10-12T18:20:05.313Z,14.27
2022-10-12T18:22:33.554Z,15.82
2022-10-12T23:24:43.824Z,11.95
2022-10-12T23:27:17.957Z,10.93
2022-10-12T23:30:44.403Z,11.77
2022-10-12T23:33:48.463Z,10.85
2022-10-12T23:45:45.493Z,11.88
2022-10-12T23:52:28.581Z,12.40
2022-10-12T23:55:07.402Z,11.93
2022-10-12T23:58:57.676Z,12.63
